createdAt,value
2018-08-16T00:00:54.179Z,13.03
2018-08-16T00:03:23.484Z,13.60
2018-08-16T00:05:52.632Z,13.13
2018-08-16T00:08:21.642Z,13.47
2018-08-16T00:10:50.816Z,13.30
2018-08-16T00:13:20.039Z,13.33
2018-08-16T00:15:48.882Z,13.47
2018-08-16T00:18:17.894Z,12.20
2018-08-16T00:20:47.115Z,13.03
2018-08-16T00:23:16.254Z,11.53
2018-08-16T00:25:45.804Z,11.60
2018-08-16T00:28:15.045Z,12.37
2018-08-16T00:30:44.160Z,10.77
2018-08-16T00:33:13.342Z,9.93
2018-08-16T00:35:42.356Z,9.77
2018-08-16T00:38:11.598Z,10.27
2018-08-16T00:40:40.967Z,10.37
2018-08-16T00:43:10.194Z,9.30
2018-08-16T00:45:39.335Z,9.00
2018-08-16T00:48:08.617Z,9.57
2018-08-16T00:50:37.724Z,10.03
2018-08-16T00:53:07.295Z,10.10
2018-08-16T00:55:36.527Z,10.30
2018-08-16T00:58:05.672Z,10.13
2018-08-16T01:00:34.744Z,9.50
2018-08-16T01:03:03.875Z,9.57
2018-08-16T01:05:33.083Z,10.67
2018-08-16T01:08:02.248Z,9.90
2018-08-16T01:10:31.631Z,8.73
2018-08-16T01:13:01.172Z,10.27
2018-08-16T01:15:30.354Z,8.90
2018-08-16T01:17:59.796Z,10.73
2018-08-16T01:20:28.955Z,9.20
2018-08-16T01:22:58.012Z,9.63
2018-08-16T01:25:27.757Z,10.27
2018-08-16T01:27:56.967Z,10.00
2018-08-16T01:30:25.984Z,9.63
2018-08-16T01:32:55.392Z,9.33
2018-08-16T01:35:24.717Z,8.63
2018-08-16T01:37:53.951Z,8.73
2018-08-16T01:40:23.160Z,8.07
2018-08-16T01:42:52.340Z,8.90
2018-08-16T01:45:21.654Z,10.60
2018-08-16T01:47:50.896Z,10.00
2018-08-16T01:50:20.852Z,9.10
2018-08-16T01:52:50.203Z,9.70
2018-08-16T01:55:19.492Z,9.57
2018-08-16T01:57:48.691Z,9.47
2018-08-16T02:00:17.848Z,8.60
2018-08-16T02:02:47.014Z,8.57
2018-08-16T02:05:16.304Z,8.17
2018-08-16T02:07:45.439Z,8.20
2018-08-16T02:10:14.879Z,8.03
2018-08-16T02:12:44.142Z,7.80
2018-08-16T02:15:13.827Z,7.47
2018-08-16T02:17:43.019Z,8.33
2018-08-16T02:20:14.172Z,8.50
2018-08-16T02:22:44.180Z,8.03
2018-08-16T02:25:13.659Z,8.17
2018-08-16T02:27:42.808Z,7.63
2018-08-16T02:30:12.039Z,8.13
2018-08-16T02:32:41.257Z,7.83
2018-08-16T02:35:10.341Z,9.27
2018-08-16T02:37:39.679Z,9.27
2018-08-16T02:40:09.343Z,9.13
2018-08-16T02:42:38.808Z,9.33
2018-08-16T02:45:08.149Z,10.73
2018-08-16T02:47:37.115Z,12.00
2018-08-16T02:50:06.435Z,10.27
2018-08-16T02:52:35.736Z,9.50
2018-08-16T02:55:04.939Z,9.07
2018-08-16T02:57:34.019Z,7.67
2018-08-16T03:00:03.236Z,7.53
2018-08-16T03:02:32.483Z,7.53
2018-08-16T03:05:01.869Z,8.27
2018-08-16T03:07:31.094Z,8.17
2018-08-16T03:10:00.271Z,9.77
2018-08-16T03:12:29.441Z,9.37
2018-08-16T03:14:58.702Z,9.70
2018-08-16T03:17:27.816Z,10.63
2018-08-16T03:19:57.068Z,10.30
2018-08-16T03:22:26.252Z,10.07
2018-08-16T03:24:55.659Z,10.00
2018-08-16T03:27:25.251Z,9.10
2018-08-16T03:29:54.584Z,9.90
2018-08-16T03:32:23.812Z,9.33
2018-08-16T03:34:54.124Z,9.97
2018-08-16T03:37:23.276Z,9.90
2018-08-16T03:39:52.428Z,10.40
2018-08-16T03:42:21.863Z,10.23
2018-08-16T03:44:51.244Z,10.20
2018-08-16T03:47:20.238Z,10.10
2018-08-16T03:49:49.507Z,10.70
2018-08-16T03:52:18.628Z,10.03
2018-08-16T03:54:47.651Z,11.00
2018-08-16T03:57:16.891Z,10.23
2018-08-16T03:59:46.056Z,10.27
2018-08-16T04:02:15.219Z,10.30
2018-08-16T04:04:44.501Z,9.13
2018-08-16T04:07:13.748Z,10.07
2018-08-16T04:09:43.794Z,10.60
2018-08-16T04:12:13.128Z,12.17
2018-08-16T04:14:42.535Z,12.33
2018-08-16T04:17:11.755Z,14.33
2018-08-16T04:19:41.011Z,14.57
2018-08-16T04:22:09.991Z,13.43
2018-08-16T04:24:39.501Z,12.63
2018-08-16T04:27:08.801Z,12.67
2018-08-16T04:29:38.125Z,11.63
2018-08-16T04:32:07.562Z,10.57
2018-08-16T04:34:36.695Z,10.00
2018-08-16T04:37:05.964Z,10.27
2018-08-16T04:39:35.670Z,9.57
2018-08-16T04:42:05.545Z,11.57
2018-08-16T04:44:34.635Z,10.57
2018-08-16T04:47:03.873Z,11.53
2018-08-16T04:49:32.968Z,11.67
2018-08-16T04:52:02.649Z,12.63
2018-08-16T04:54:31.863Z,13.37
2018-08-16T04:57:01.108Z,13.90
2018-08-16T04:59:30.475Z,13.03
2018-08-16T05:01:59.851Z,14.23
2018-08-16T05:04:29.158Z,14.73
2018-08-16T05:06:58.439Z,15.50
2018-08-16T05:09:27.370Z,16.50
2018-08-16T05:11:56.388Z,15.03
2018-08-16T05:14:25.517Z,13.50
2018-08-16T05:16:54.732Z,14.00
2018-08-16T05:19:24.003Z,13.23
2018-08-16T05:21:53.351Z,13.03
2018-08-16T05:24:22.583Z,12.93
2018-08-16T05:26:52.179Z,14.70
2018-08-16T05:29:21.453Z,14.60
2018-08-16T05:31:50.619Z,21.97
2018-08-16T05:34:19.960Z,25.43
2018-08-16T05:36:49.193Z,15.60
2018-08-16T05:39:18.431Z,12.87
2018-08-16T05:41:47.624Z,11.73
2018-08-16T05:44:16.983Z,10.80
2018-08-16T05:46:45.968Z,11.83
2018-08-16T05:49:16.831Z,11.17
2018-08-16T05:51:46.326Z,11.87
2018-08-16T05:54:15.663Z,14.47
2018-08-16T05:56:45.363Z,19.07
2018-08-16T05:59:14.929Z,13.53
2018-08-16T06:01:44.050Z,13.03
2018-08-16T06:04:13.368Z,12.83
2018-08-16T06:06:42.423Z,12.30
2018-08-16T06:09:12.256Z,10.57
2018-08-16T06:11:41.612Z,11.30
2018-08-16T06:14:10.740Z,12.00
2018-08-16T06:16:39.980Z,10.07
2018-08-16T06:19:09.218Z,9.23
2018-08-16T06:21:38.569Z,9.10
2018-08-16T06:24:07.762Z,9.27
2018-08-16T06:26:36.727Z,8.13
2018-08-16T06:29:06.015Z,8.87
2018-08-16T06:31:35.488Z,10.80
2018-08-16T06:34:04.509Z,9.60
2018-08-16T06:36:33.996Z,9.60
2018-08-16T06:39:03.332Z,11.07
2018-08-16T06:41:32.447Z,10.33
2018-08-16T06:44:01.819Z,10.07
2018-08-16T06:46:31.344Z,10.27
2018-08-16T06:49:00.564Z,10.60
2018-08-16T06:51:29.814Z,11.67
2018-08-16T06:53:59.071Z,12.60
2018-08-16T06:56:28.372Z,13.93
2018-08-16T06:58:57.712Z,17.33
2018-08-16T07:01:26.887Z,13.47
2018-08-16T07:03:56.072Z,12.90
2018-08-16T07:06:25.188Z,12.37
2018-08-16T07:08:54.473Z,10.10
2018-08-16T07:11:23.853Z,8.87
2018-08-16T07:13:53.255Z,8.70
2018-08-16T07:16:22.635Z,7.53
2018-08-16T07:18:52.078Z,8.67
2018-08-16T07:21:21.145Z,7.50
2018-08-16T07:23:51.102Z,7.27
2018-08-16T07:26:20.403Z,7.00
2018-08-16T07:28:49.560Z,6.73
2018-08-16T07:31:18.769Z,6.37
2018-08-16T07:33:48.232Z,6.13
2018-08-16T07:36:17.584Z,6.73
2018-08-16T07:38:46.844Z,7.85
2018-08-16T07:41:16.392Z,6.37
2018-08-16T07:43:45.634Z,6.03
2018-08-16T07:46:15.172Z,5.80
2018-08-16T07:48:44.458Z,5.90
2018-08-16T07:51:13.735Z,4.62
2018-08-16T07:53:42.843Z,5.40
2018-08-16T07:56:12.038Z,5.20
2018-08-16T07:58:41.245Z,4.65
2018-08-16T08:01:10.518Z,5.03
2018-08-16T08:03:39.708Z,5.55
2018-08-16T08:06:08.954Z,5.60
2018-08-16T08:08:38.504Z,5.70
2018-08-16T08:11:07.919Z,5.60
2018-08-16T08:13:37.235Z,5.95
2018-08-16T08:16:06.619Z,5.10
2018-08-16T08:18:35.765Z,5.25
2018-08-16T08:21:05.164Z,5.30
2018-08-16T08:23:34.288Z,6.42
2018-08-16T08:26:03.622Z,5.40
2018-08-16T08:28:32.685Z,5.22
2018-08-16T08:31:02.094Z,4.78
2018-08-16T08:33:31.366Z,5.47
2018-08-16T08:36:11.332Z,4.97
2018-08-16T08:38:40.434Z,6.03
2018-08-16T08:41:09.603Z,6.12
2018-08-16T08:43:49.651Z,5.30
2018-08-16T08:46:18.669Z,4.67
2018-08-16T08:48:47.809Z,5.22
2018-08-16T08:51:16.876Z,4.53
2018-08-16T08:54:31.089Z,4.40
2018-08-16T08:57:11.435Z,3.60
2018-08-16T08:59:40.893Z,5.65
2018-08-16T09:02:11.243Z,7.45
2018-08-16T09:04:40.533Z,4.70
2018-08-16T09:07:13.432Z,4.80
2018-08-16T09:10:53.802Z,4.40
2018-08-16T09:13:34.795Z,4.60
2018-08-16T09:16:20.013Z,4.03
2018-08-16T09:18:49.213Z,4.42
2018-08-16T09:21:18.503Z,12.10
2018-08-16T09:23:47.688Z,5.47
2018-08-16T09:26:22.422Z,5.17
2018-08-16T09:28:51.643Z,4.67
2018-08-16T09:31:32.301Z,4.55
2018-08-16T09:34:37.962Z,6.80
2018-08-16T09:37:07.368Z,4.83
2018-08-16T09:39:36.720Z,4.62
2018-08-16T09:42:05.652Z,4.30
2018-08-16T09:44:35.011Z,20.95
2018-08-16T09:47:15.189Z,4.87
2018-08-16T09:49:46.924Z,4.12
2018-08-16T09:52:16.400Z,5.50
2018-08-16T09:54:45.618Z,3.90
2018-08-16T09:57:15.420Z,3.65
2018-08-16T09:59:44.745Z,3.87
2018-08-16T10:02:16.675Z,3.75
2018-08-16T10:04:45.955Z,3.90
2018-08-16T10:07:15.104Z,3.02
2018-08-16T10:09:44.383Z,3.30
2018-08-16T10:12:13.687Z,3.95
2018-08-16T10:14:42.790Z,3.85
2018-08-16T10:17:12.077Z,3.05
2018-08-16T10:19:41.023Z,3.27
2018-08-16T10:22:10.232Z,6.35
2018-08-16T10:24:40.081Z,6.97
2018-08-16T10:27:09.482Z,15.68
2018-08-16T10:29:38.796Z,3.80
2018-08-16T10:32:07.984Z,6.60
2018-08-16T10:34:37.131Z,3.80
2018-08-16T10:37:06.294Z,5.08
2018-08-16T10:39:35.280Z,5.83
2018-08-16T10:42:04.612Z,5.28
2018-08-16T10:44:33.870Z,12.47
2018-08-16T10:47:03.036Z,3.50
2018-08-16T10:49:32.792Z,2.92
2018-08-16T10:52:02.956Z,5.03
2018-08-16T10:54:32.028Z,3.30
2018-08-16T10:57:01.257Z,3.55
2018-08-16T10:59:30.402Z,8.78
2018-08-16T11:01:59.676Z,3.10
2018-08-16T11:04:29.496Z,2.50
2018-08-16T11:07:03.140Z,2.47
2018-08-16T11:09:37.400Z,1.90
2018-08-16T11:12:06.983Z,8.45
2018-08-16T11:14:36.420Z,5.80
2018-08-16T11:17:05.421Z,9.38
2018-08-16T11:19:35.064Z,2.83
2018-08-16T11:22:04.979Z,1.70
2018-08-16T11:24:34.185Z,2.00
2018-08-16T11:27:03.520Z,1.80
2018-08-16T11:29:35.789Z,1.90
2018-08-16T11:32:05.111Z,2.10
2018-08-16T11:34:34.778Z,1.60
2018-08-16T11:37:03.799Z,1.90
2018-08-16T11:39:32.968Z,2.08
2018-08-16T11:42:01.993Z,1.90
2018-08-16T11:44:31.519Z,3.20
2018-08-16T11:47:00.897Z,2.42
2018-08-16T11:49:30.180Z,1.60
2018-08-16T11:51:59.546Z,1.80
2018-08-16T11:54:29.272Z,1.82
2018-08-16T11:56:58.578Z,1.60
2018-08-16T11:59:27.698Z,2.10
2018-08-16T12:01:57.016Z,1.98
2018-08-16T12:04:26.387Z,2.40
2018-08-16T12:06:55.781Z,1.98
2018-08-16T12:09:25.121Z,1.50
2018-08-16T12:11:54.976Z,2.17
2018-08-16T12:14:24.321Z,2.77
2018-08-16T12:16:53.591Z,2.45
2018-08-16T12:19:22.848Z,2.40
2018-08-16T12:21:52.015Z,1.92
2018-08-16T12:24:21.208Z,2.02
2018-08-16T12:26:50.857Z,1.80
2018-08-16T12:29:27.802Z,3.20
2018-08-16T12:31:58.083Z,2.40
2018-08-16T12:34:28.449Z,2.20
2018-08-16T12:36:59.221Z,2.20
2018-08-16T12:39:30.475Z,2.33
2018-08-16T12:42:01.622Z,2.20
2018-08-16T12:44:31.509Z,1.80
2018-08-16T12:47:01.442Z,6.58
2018-08-16T12:49:30.673Z,6.30
2018-08-16T12:52:00.107Z,4.40
2018-08-16T12:54:29.272Z,2.20
2018-08-16T12:56:58.362Z,2.75
2018-08-16T12:59:27.932Z,9.18
2018-08-16T13:01:57.510Z,40.65
2018-08-16T13:04:27.094Z,25.75
2018-08-16T13:06:57.346Z,3.00
2018-08-16T13:09:35.577Z,8.43
2018-08-16T13:12:04.533Z,4.50
2018-08-16T13:14:33.866Z,3.17
2018-08-16T13:17:03.201Z,3.45
2018-08-16T13:19:34.327Z,2.75
2018-08-16T13:22:04.794Z,2.30
2018-08-16T13:24:36.220Z,1.90
2018-08-16T13:27:05.617Z,1.92
2018-08-16T13:29:35.546Z,2.37
2018-08-16T13:32:05.069Z,2.17
2018-08-16T13:34:34.773Z,2.95
2018-08-16T13:37:04.435Z,2.65
2018-08-16T13:39:33.588Z,2.60
2018-08-16T13:42:02.783Z,2.17
2018-08-16T13:44:32.249Z,1.77
2018-08-16T13:47:02.188Z,1.98
2018-08-16T13:49:31.482Z,1.92
2018-08-16T13:52:00.571Z,1.60
2018-08-16T13:54:30.342Z,1.90
2018-08-16T13:56:59.960Z,2.12
2018-08-16T13:59:29.595Z,1.80
2018-08-16T14:01:59.259Z,1.87
2018-08-16T14:04:28.840Z,1.87
2018-08-16T14:06:58.196Z,3.58
2018-08-16T14:09:27.710Z,6.90
2018-08-16T14:11:56.815Z,2.10
2018-08-16T14:14:26.070Z,3.30
2018-08-16T14:16:55.348Z,3.33
2018-08-16T14:19:24.785Z,2.83
2018-08-16T14:21:54.250Z,2.60
2018-08-16T14:24:23.475Z,2.40
2018-08-16T14:26:52.777Z,2.80
2018-08-16T14:29:22.075Z,1.90
2018-08-16T14:31:51.778Z,3.17
2018-08-16T14:34:21.045Z,3.08
2018-08-16T14:36:50.195Z,2.35
2018-08-16T14:39:19.479Z,2.00
2018-08-16T14:41:48.912Z,2.83
2018-08-16T14:44:18.244Z,2.50
2018-08-16T14:46:47.496Z,2.30
2018-08-16T14:49:16.840Z,2.10
2018-08-16T14:51:46.001Z,2.40
2018-08-16T14:54:15.306Z,2.25
2018-08-16T14:56:45.681Z,3.08
2018-08-16T14:59:15.088Z,2.50
2018-08-16T15:01:44.231Z,2.35
2018-08-16T15:04:13.785Z,1.98
2018-08-16T15:06:42.850Z,1.90
2018-08-16T15:09:12.700Z,2.10
2018-08-16T15:11:42.190Z,1.70
2018-08-16T15:14:11.473Z,1.82
2018-08-16T15:16:40.809Z,1.70
2018-08-16T15:19:10.512Z,2.10
2018-08-16T15:21:39.690Z,1.70
2018-08-16T15:24:09.116Z,2.08
2018-08-16T15:26:38.594Z,1.90
2018-08-16T15:29:07.900Z,1.98
2018-08-16T15:31:37.255Z,1.65
2018-08-16T15:34:06.689Z,1.82
2018-08-16T15:36:35.838Z,2.20
2018-08-16T15:39:07.389Z,2.22
2018-08-16T15:41:36.556Z,2.80
2018-08-16T15:44:05.726Z,3.25
2018-08-16T15:46:35.160Z,3.50
2018-08-16T15:49:04.323Z,2.40
2018-08-16T15:51:33.491Z,2.00
2018-08-16T15:54:03.225Z,2.20
2018-08-16T15:56:32.437Z,2.40
2018-08-16T15:59:01.917Z,2.58
2018-08-16T16:01:32.060Z,2.50
2018-08-16T16:04:01.222Z,2.60
2018-08-16T16:06:30.526Z,2.45
2018-08-16T16:08:59.689Z,2.35
2018-08-16T16:11:29.133Z,3.05
2018-08-16T16:13:58.209Z,6.35
2018-08-16T16:16:27.705Z,3.10
2018-08-16T16:18:56.895Z,2.75
2018-08-16T16:21:26.041Z,2.58
2018-08-16T16:23:55.260Z,2.40
2018-08-16T16:26:24.463Z,3.37
2018-08-16T16:28:53.375Z,3.00
2018-08-16T16:31:22.576Z,2.77
2018-08-16T16:33:52.005Z,3.08
2018-08-16T16:36:21.860Z,3.00
2018-08-16T16:38:51.083Z,3.40
2018-08-16T16:41:20.505Z,4.08
2018-08-16T16:43:50.195Z,4.10
2018-08-16T16:46:19.773Z,4.17
2018-08-16T16:48:48.847Z,4.03
2018-08-16T16:51:18.289Z,4.03
2018-08-16T16:53:47.609Z,3.70
2018-08-16T16:56:17.152Z,3.70
2018-08-16T16:58:46.287Z,3.62
2018-08-16T17:01:15.703Z,4.33
2018-08-16T17:03:47.932Z,3.70
2018-08-16T17:06:17.440Z,3.58
2018-08-16T17:08:50.628Z,3.62
2018-08-16T17:11:21.472Z,3.27
2018-08-16T17:13:54.599Z,3.70
2018-08-16T17:16:24.649Z,4.28
2018-08-16T17:18:55.159Z,3.72
2018-08-16T17:21:24.518Z,3.70
2018-08-16T17:23:53.889Z,3.47
2018-08-16T17:26:23.398Z,4.10
2018-08-16T17:28:53.304Z,7.65
2018-08-16T17:31:23.662Z,5.70
2018-08-16T17:33:53.277Z,5.35
2018-08-16T17:36:23.265Z,6.00
2018-08-16T17:38:53.210Z,6.70
2018-08-16T17:41:22.898Z,9.10
2018-08-16T17:43:52.357Z,10.65
2018-08-16T17:46:22.172Z,12.33
2018-08-16T17:48:56.068Z,14.73
2018-08-16T17:51:26.422Z,20.12
2018-08-16T17:53:59.969Z,17.40
2018-08-16T17:56:29.509Z,14.87
2018-08-16T17:58:59.340Z,12.30
2018-08-16T18:01:28.950Z,10.53
2018-08-16T18:03:58.161Z,10.70
2018-08-16T18:06:27.428Z,10.20
2018-08-16T18:08:56.999Z,11.43
2018-08-16T18:11:26.583Z,12.93
2018-08-16T18:13:55.929Z,12.63
2018-08-16T18:16:25.191Z,14.47
2018-08-16T18:18:54.908Z,15.93
2018-08-16T18:21:24.286Z,15.97
2018-08-16T18:23:53.335Z,23.03
2018-08-16T18:26:22.517Z,43.87
2018-08-16T18:28:51.916Z,42.07
2018-08-16T18:31:21.189Z,37.90
2018-08-16T18:33:50.341Z,30.60
2018-08-16T18:36:19.769Z,27.80
2018-08-16T18:38:49.053Z,23.93
2018-08-16T18:41:18.352Z,22.13
2018-08-16T18:43:47.987Z,23.30
2018-08-16T18:46:17.046Z,19.73
2018-08-16T18:48:46.447Z,17.37
2018-08-16T18:51:16.188Z,14.87
2018-08-16T18:53:45.704Z,14.83
2018-08-16T18:56:15.893Z,16.87
2018-08-16T18:58:45.805Z,19.57
2018-08-16T19:01:15.817Z,18.17
2018-08-16T19:03:45.382Z,16.70
2018-08-16T19:06:14.988Z,17.10
2018-08-16T19:08:44.598Z,17.43
2018-08-16T19:11:14.515Z,16.63
2018-08-16T19:13:44.081Z,17.30
2018-08-16T19:16:13.939Z,17.13
2018-08-16T19:18:43.476Z,17.00
2018-08-16T19:21:12.690Z,16.43
2018-08-16T19:23:41.880Z,15.60
2018-08-16T19:26:11.447Z,12.87
2018-08-16T19:28:40.825Z,15.90
2018-08-16T19:31:09.975Z,16.10
2018-08-16T19:33:39.665Z,14.73
2018-08-16T19:36:09.187Z,17.00
2018-08-16T19:38:38.444Z,18.00
2018-08-16T19:41:07.765Z,17.20
2018-08-16T19:43:37.363Z,16.47
2018-08-16T19:46:07.890Z,18.07
2018-08-16T19:48:39.350Z,15.23
2018-08-16T19:51:10.484Z,15.50
2018-08-16T19:53:40.650Z,14.23
2018-08-16T19:56:10.390Z,14.53
2018-08-16T19:58:41.151Z,14.63
2018-08-16T20:01:12.076Z,14.40
2018-08-16T20:03:41.987Z,14.17
2018-08-16T20:06:12.065Z,14.17
2018-08-16T20:08:41.628Z,15.37
2018-08-16T20:11:11.916Z,14.77
2018-08-16T20:13:41.467Z,14.70
2018-08-16T20:16:11.024Z,15.33
2018-08-16T20:18:40.417Z,16.13
2018-08-16T20:21:10.184Z,15.87
2018-08-16T20:23:39.407Z,15.90
2018-08-16T20:26:09.291Z,13.73
2018-08-16T20:28:38.878Z,14.80
2018-08-16T20:31:08.572Z,13.70
2018-08-16T20:33:38.098Z,14.13
2018-08-16T20:36:07.316Z,13.43
2018-08-16T20:38:36.611Z,15.17
2018-08-16T20:41:05.621Z,14.43
2018-08-16T20:43:35.943Z,13.87
2018-08-16T20:46:05.412Z,13.70
2018-08-16T20:48:34.833Z,11.60
2018-08-16T20:51:03.936Z,13.87
2018-08-16T20:53:33.292Z,12.97
2018-08-16T20:56:02.877Z,13.00
2018-08-16T20:58:32.464Z,12.63
2018-08-16T21:01:01.557Z,11.50
2018-08-16T21:03:31.108Z,11.90
2018-08-16T21:06:00.818Z,11.90
2018-08-16T21:08:30.621Z,11.53
2018-08-16T21:11:00.159Z,11.20
2018-08-16T21:13:29.745Z,12.77
2018-08-16T21:15:59.132Z,11.53
2018-08-16T21:18:28.393Z,13.93
2018-08-16T21:20:57.943Z,14.00
2018-08-16T21:23:27.177Z,14.00
2018-08-16T21:25:56.687Z,17.20
2018-08-16T21:28:25.971Z,14.67
2018-08-16T21:30:55.110Z,13.90
2018-08-16T21:33:25.098Z,13.30
2018-08-16T21:35:54.419Z,13.40
2018-08-16T21:38:24.001Z,14.20
2018-08-16T21:40:53.355Z,14.57
2018-08-16T21:43:22.517Z,14.80
2018-08-16T21:45:51.853Z,14.03
2018-08-16T21:48:21.264Z,13.83
2018-08-16T21:50:50.476Z,13.03
2018-08-16T21:53:19.851Z,13.23
2018-08-16T21:55:49.133Z,14.73
2018-08-16T21:58:18.285Z,16.13
2018-08-16T22:00:52.576Z,15.83
2018-08-16T22:03:23.237Z,20.00
2018-08-16T22:06:00.605Z,20.60
2018-08-16T22:08:40.496Z,20.57
2018-08-16T22:11:09.979Z,19.47
2018-08-16T22:13:39.356Z,20.87
2018-08-16T22:16:08.543Z,18.67
2018-08-16T22:18:37.953Z,19.57
2018-08-16T22:21:07.226Z,18.33
2018-08-16T22:23:36.957Z,17.23
2018-08-16T22:26:06.321Z,17.50
2018-08-16T22:28:35.458Z,17.50
2018-08-16T22:31:04.824Z,15.13
2018-08-16T22:33:35.181Z,14.53
2018-08-16T22:36:04.482Z,14.37
2018-08-16T22:38:33.670Z,14.27
2018-08-16T22:41:02.951Z,13.20
2018-08-16T22:43:32.274Z,13.13
2018-08-16T22:46:01.648Z,12.50
2018-08-16T22:48:31.058Z,11.67
2018-08-16T22:51:00.314Z,10.90
2018-08-16T22:53:29.741Z,11.03
2018-08-16T22:55:58.886Z,10.80
2018-08-16T22:58:28.043Z,11.50
2018-08-16T23:00:57.263Z,11.33
2018-08-16T23:03:26.657Z,12.00
2018-08-16T23:05:56.107Z,11.13
2018-08-16T23:08:25.375Z,11.53
2018-08-16T23:10:54.630Z,13.30
2018-08-16T23:13:23.803Z,13.33
2018-08-16T23:15:52.921Z,14.23
2018-08-16T23:18:22.252Z,14.10
2018-08-16T23:20:51.494Z,14.13
2018-08-16T23:23:20.621Z,13.50
2018-08-16T23:25:49.541Z,14.33
2018-08-16T23:28:18.776Z,14.00
2018-08-16T23:30:47.917Z,15.33
2018-08-16T23:33:17.340Z,15.30
2018-08-16T23:35:46.828Z,14.23
2018-08-16T23:38:15.989Z,13.63
2018-08-16T23:40:44.923Z,13.60
2018-08-16T23:43:14.159Z,13.80
2018-08-16T23:45:43.164Z,12.73
2018-08-16T23:48:22.951Z,11.70
2018-08-16T23:50:52.313Z,13.03
2018-08-16T23:53:21.771Z,13.63
2018-08-16T23:55:50.961Z,13.30
2018-08-16T23:58:20.152Z,13.30
